| time (UTC) | temp C | wind direction | speed KPH | gust KPH | rain 1hr cm | rain 24hr cm | rain mn cm | humidity % | barometer mb |
| 20260503225506 | 20 | 267 | 4.8 | 11.3 | 0.00 | 0.00 | 0.00 | 40 | 1002.6 |
| 20260503225004 | 20 | 296 | 3.2 | 4.8 | 0.00 | 0.00 | 0.00 | 43 | 1002.5 |
| 20260503224005 | 20 | 259 | 4.8 | 11.3 | 0.00 | 0.00 | 0.00 | 44 | 1002.5 |
| 20260503223005 | 20 | 273 | 3.2 | 11.3 | 0.00 | 0.00 | 0.00 | 43 | 1002.7 |
| 20260503222504 | 20 | 240 | 3.2 | 11.3 | 0.00 | 0.00 | 0.00 | 42 | 1002.6 |
| 20260503222004 | 20 | 223 | 4.8 | 14.5 | 0.00 | 0.00 | 0.00 | 41 | 1002.7 |
| 20260503221504 | 20 | 263 | 3.2 | 19.3 | 0.00 | 0.00 | 0.00 | 43 | 1002.6 |
| 20260503221004 | 20 | 239 | 4.8 | 12.9 | 0.00 | 0.00 | 0.00 | 43 | 1002.6 |
| 20260503220504 | 20 | 236 | 8.0 | 19.3 | 0.00 | 0.00 | 0.00 | 42 | 1002.9 |
| 20260503215505 | 20 | 245 | 4.8 | 11.3 | 0.00 | 0.00 | 0.00 | 42 | 1002.7 |
| 20260503215004 | 20 | 197 | 4.8 | 12.9 | 0.00 | 0.00 | 0.00 | 41 | 1002.7 |
| 20260503214004 | 20 | 239 | 8.0 | 14.5 | 0.00 | 0.00 | 0.00 | 40 | 1002.7 |
| 20260503213004 | 20 | 221 | 4.8 | 12.9 | 0.00 | 0.00 | 0.00 | 42 | 1002.8 |
| 20260503212504 | 20 | 232 | 6.4 | 12.9 | 0.00 | 0.00 | 0.00 | 43 | 1002.8 |
| 20260503212004 | 19 | 191 | 3.2 | 12.9 | 0.00 | 0.00 | 0.00 | 43 | 1002.9 |
| 20260503211004 | 20 | 237 | 6.4 | 12.9 | 0.00 | 0.00 | 0.00 | 43 | 1003.0 |
| 20260503210504 | 20 | 230 | 4.8 | 16.1 | 0.00 | 0.00 | 0.00 | 43 | 1003.1 |
| 20260503210004 | 19 | 233 | 1.6 | 9.7 | 0.00 | 0.00 | 0.00 | 44 | 1003.1 |
| 20260503205504 | 19 | 246 | 3.2 | 11.3 | 0.00 | 0.00 | 0.00 | 44 | 1003.2 |
| 20260503205004 | 19 | 245 | 4.8 | 12.9 | 0.00 | 0.00 | 0.00 | 43 | 1003.2 |
| 20260503204004 | 19 | 225 | 6.4 | 12.9 | 0.00 | 0.00 | 0.00 | 45 | 1003.5 |
| 20260503202504 | 19 | 238 | 4.8 | 14.5 | 0.00 | 0.00 | 0.00 | 46 | 1003.6 |
| 20260503202004 | 18 | 229 | 8.0 | 19.3 | 0.00 | 0.00 | 0.00 | 42 | 1003.7 |
| 20260503201504 | 18 | 262 | 3.2 | 19.3 | 0.00 | 0.00 | 0.00 | 45 | 1003.9 |
| 20260503195006 | 18 | 231 | 8.0 | 22.5 | 0.00 | 0.00 | 0.00 | 45 | 1004.1 |
| 20260503194004 | 18 | 216 | 4.8 | 14.5 | 0.00 | 0.00 | 0.00 | 42 | 1004.2 |
| 20260503193504 | 18 | 243 | 4.8 | 16.1 | 0.00 | 0.00 | 0.00 | 42 | 1004.4 |
| 20260503193005 | 18 | 224 | 8.0 | 19.3 | 0.00 | 0.00 | 0.00 | 44 | 1004.3 |
| 20260503192504 | 18 | 250 | 4.8 | 19.3 | 0.00 | 0.00 | 0.00 | 44 | 1004.4 |
| 20260503191505 | 18 | 244 | 4.8 | 25.7 | 0.00 | 0.00 | 0.00 | 45 | 1004.4 |
| 20260503184004 | 17 | 239 | 6.4 | 19.3 | 0.00 | 0.00 | 0.00 | 47 | 1004.6 |
| 20260503182005 | 17 | 222 | 6.4 | 19.3 | 0.00 | 0.00 | 0.00 | 49 | 1005.0 |
| 20260503175504 | 16 | 201 | 8.0 | 14.5 | 0.00 | 0.00 | 0.00 | 47 | 1005.3 |
| 20260503175005 | 16 | 190 | 3.2 | 12.9 | 0.00 | 0.00 | 0.00 | 52 | 1005.4 |
| 20260503172504 | 16 | 266 | 9.7 | 25.7 | 0.00 | 0.00 | 0.00 | 47 | 1005.6 |
| 20260503172005 | 16 | 220 | 8.0 | 19.3 | 0.00 | 0.00 | 0.00 | 47 | 1005.6 |
| 20260503171504 | 16 | 225 | 8.0 | 19.3 | 0.00 | 0.00 | 0.00 | 46 | 1005.7 |
| 20260503130504 | 11 | 202 | 4.8 | 16.1 | 0.00 | 0.00 | 0.00 | 62 | 1008.9 |
| 20260503080504 | 8 | 246 | 1.6 | 4.8 | 0.00 | 0.00 | 0.00 | 52 | 1010.4 |
| 20260503072503 | 8 | 229 | 1.6 | 4.8 | 0.00 | 0.00 | 0.00 | 53 | 1010.5 |
| 20260503071503 | 8 | 257 | 1.6 | 4.8 | 0.00 | 0.00 | 0.00 | 52 | 1010.7 |
| 20260503070504 | 8 | 234 | 1.6 | 4.8 | 0.00 | 0.00 | 0.00 | 51 | 1010.8 |
| 20260503055004 | 10 | 242 | 1.6 | 4.8 | 0.00 | 0.00 | 0.00 | 48 | 1011.2 |
| 20260503053503 | 10 | 244 | 3.2 | 4.8 | 0.00 | 0.00 | 0.00 | 48 | 1011.4 |
| 20260503053004 | 10 | 242 | 1.6 | 4.8 | 0.00 | 0.00 | 0.00 | 48 | 1011.4 |
| 20260503052004 | 10 | 234 | 0.0 | 4.8 | 0.00 | 0.00 | 0.00 | 48 | 1011.5 |
| 20260503050504 | 10 | 240 | 1.6 | 4.8 | 0.00 | 0.00 | 0.00 | 47 | 1011.6 |
| 20260503045503 | 10 | 256 | 1.6 | 4.8 | 0.00 | 0.00 | 0.00 | 47 | 1011.6 |
| 20260503044504 | 10 | 227 | 1.6 | 4.8 | 0.00 | 0.00 | 0.00 | 47 | 1011.7 |
| 20260503043504 | 10 | 216 | 0.0 | 3.2 | 0.00 | 0.00 | 0.00 | 47 | 1011.8 |
| 20260503042503 | 10 | 209 | 3.2 | 4.8 | 0.00 | 0.00 | 0.00 | 47 | 1011.9 |
| 20260503040004 | 9 | 246 | 0.0 | 4.8 | 0.00 | 0.00 | 0.00 | 50 | 1012.1 |
| 20260503034504 | 9 | 247 | 1.6 | 3.2 | 0.00 | 0.00 | 0.00 | 49 | 1012.2 |
| 20260503032504 | 9 | 246 | 0.0 | 3.2 | 0.00 | 0.00 | 0.00 | 49 | 1012.4 |
| 20260503031503 | 9 | 246 | 0.0 | 0.0 | 0.00 | 0.00 | 0.00 | 51 | 1012.4 |
| 20260503030503 | 9 | 246 | 0.0 | 0.0 | 0.00 | 0.00 | 0.00 | 51 | 1012.4 |
| 20260503025505 | 8 | 246 | 0.0 | 0.0 | 0.00 | 0.00 | 0.00 | 51 | 1012.5 |
| 20260503025005 | 8 | 246 | 0.0 | 0.0 | 0.00 | 0.00 | 0.00 | 51 | 1012.6 |
| 20260503024005 | 8 | 246 | 0.0 | 0.0 | 0.00 | 0.00 | 0.00 | 53 | 1012.6 |
| 20260503023505 | 8 | 246 | 0.0 | 0.0 | 0.00 | 0.00 | 0.00 | 52 | 1012.5 |
| 20260503023005 | 8 | 246 | 0.0 | 0.0 | 0.00 | 0.00 | 0.00 | 52 | 1012.6 |
| 20260503022505 | 8 | 246 | 0.0 | 0.0 | 0.00 | 0.00 | 0.00 | 54 | 1012.5 |
| 20260503022005 | 8 | 245 | 0.0 | 0.0 | 0.00 | 0.00 | 0.00 | 54 | 1012.5 |
| 20260503020005 | 9 | 245 | 0.0 | 0.0 | 0.00 | 0.00 | 0.00 | 51 | 1012.4 |
| 20260503015505 | 9 | 245 | 0.0 | 0.0 | 0.00 | 0.00 | 0.00 | 51 | 1012.4 |
| 20260503015005 | 9 | 245 | 0.0 | 0.0 | 0.00 | 0.00 | 0.00 | 50 | 1012.3 |
| 20260503011505 | 11 | 245 | 0.0 | 0.0 | 0.00 | 0.00 | 0.00 | 44 | 1012.2 |
| 20260503011005 | 11 | 245 | 0.0 | 0.0 | 0.00 | 0.00 | 0.00 | 44 | 1012.2 |
| 20260503010505 | 11 | 245 | 0.0 | 0.0 | 0.00 | 0.00 | 0.00 | 43 | 1012.2 |
| 20260503005005 | 12 | 245 | 1.6 | 4.8 | 0.00 | 0.00 | 0.00 | 41 | 1012.2 |
| 20260503004505 | 12 | 255 | 1.6 | 4.8 | 0.00 | 0.00 | 0.00 | 40 | 1012.2 |
| 20260503003005 | 12 | 255 | 0.0 | 4.8 | 0.00 | 0.00 | 0.00 | 38 | 1012.2 |
| 20260503002506 | 12 | 240 | 1.6 | 3.2 | 0.00 | 0.00 | 0.00 | 38 | 1012.3 |
| 20260503002005 | 13 | 240 | 3.2 | 11.3 | 0.00 | 0.00 | 0.00 | 38 | 1012.3 |
| 20260503001505 | 13 | 243 | 4.8 | 11.3 | 0.00 | 0.00 | 0.00 | 36 | 1012.3 |
| 20260503001005 | 13 | 245 | 1.6 | 4.8 | 0.00 | 0.00 | 0.00 | 37 | 1012.5 |
| 20260503000505 | 13 | 246 | 4.8 | 9.7 | 0.00 | 0.00 | 0.00 | 36 | 1012.5 |
| 20260503000004 | 13 | 241 | 6.4 | 16.1 | 0.00 | 0.00 | 0.00 | 34 | 1012.6 |
| 20260502235504 | 13 | 242 | 3.2 | 4.8 | 0.00 | 0.00 | 0.00 | 36 | 1012.6 |
| 20260502235005 | 13 | 243 | 4.8 | 14.5 | 0.00 | 0.00 | 0.00 | 36 | 1012.7 |
| 20260502234505 | 13 | 254 | 3.2 | 4.8 | 0.00 | 0.00 | 0.00 | 36 | 1012.7 |
| 20260502234005 | 13 | 281 | 3.2 | 9.7 | 0.00 | 0.00 | 0.00 | 35 | 1012.8 |
| 20260502233506 | 13 | 266 | 4.8 | 12.9 | 0.00 | 0.00 | 0.00 | 36 | 1012.8 |
| 20260502233006 | 13 | 243 | 4.8 | 12.9 | 0.00 | 0.00 | 0.00 | 35 | 1012.7 |
| 20260502232005 | 13 | 257 | 4.8 | 12.9 | 0.00 | 0.00 | 0.00 | 35 | 1012.8 |
| 20260502231005 | 13 | 286 | 4.8 | 12.9 | 0.00 | 0.00 | 0.00 | 35 | 1012.9 |
| 20260502230505 | 13 | 259 | 3.2 | 12.9 | 0.00 | 0.00 | 0.00 | 36 | 1013.0 |